Terminal Aerodrome Forecast
Issued by NWS

Home | Current Version | Previous Version | Graphics & Text | Print | Product List | Glossary Off
Versions: 1 2 3 4 5 6 7 8 9 10 11 12 13 14 15 16 17 18

000
FTUS41 KCLE 011100
TAFFDY
TAF
KFDY 011138Z 0112/0212 18005KT 1 1/2SM -SN BR OVC010
      TEMPO 0112/0113 1/2SM SN VV007
     FM011500 08012KT 1 1/2SM -SN OVC010
     FM012200 08015KT 1/2SM SN OVC003
     FM020300 04015KT 1/2SM SN OVC003
     FM020500 03018G28KT 1 1/2SM -SN BLSN OVC005
     FM020800 02018G28KT 2SM -SN BLSN OVC007=

USA.gov is the U.S. government's official web portal to all federal, state and local government web resources and services.